createdAt,value
2018-11-06T00:01:44.825Z,78.49
2018-11-06T00:04:12.350Z,78.37
2018-11-06T00:09:38.879Z,78.21
2018-11-06T00:12:06.564Z,78.40
2018-11-06T00:14:34.321Z,78.52
2018-11-06T00:17:01.779Z,78.73
2018-11-06T00:19:29.552Z,78.28
2018-11-06T00:21:57.312Z,78.33
2018-11-06T00:24:24.812Z,78.56
2018-11-06T00:26:52.585Z,78.53
2018-11-06T00:29:20.607Z,78.36
2018-11-06T00:31:48.150Z,78.45
2018-11-06T00:34:15.833Z,78.48
2018-11-06T00:36:43.584Z,78.67
2018-11-06T00:39:11.020Z,78.50
2018-11-06T00:41:39.266Z,78.74
2018-11-06T00:44:07.512Z,78.79
2018-11-06T00:46:34.976Z,78.79
2018-11-06T00:49:02.720Z,78.68
2018-11-06T00:51:30.803Z,78.57
2018-11-06T00:53:58.259Z,78.40
2018-11-06T00:56:26.055Z,78.69
2018-11-06T00:58:54.252Z,78.42
2018-11-06T01:01:21.753Z,78.41
2018-11-06T01:03:54.153Z,78.18
2018-11-06T01:06:22.379Z,78.48
2018-11-06T01:08:49.844Z,78.41
2018-11-06T01:11:17.411Z,78.37
2018-11-06T01:13:45.592Z,78.30
2018-11-06T01:16:13.540Z,78.62
2018-11-06T01:18:41.146Z,78.23
2018-11-06T01:21:08.908Z,78.20
2018-11-06T01:23:36.522Z,78.23
2018-11-06T01:26:04.438Z,78.26
2018-11-06T01:28:32.061Z,78.72
2018-11-06T01:30:59.540Z,78.65
2018-11-06T01:33:27.424Z,78.71
2018-11-06T01:35:55.122Z,78.42
2018-11-06T01:38:22.733Z,78.29
2018-11-06T01:40:50.400Z,78.21
2018-11-06T01:43:18.203Z,78.40
2018-11-06T01:45:45.723Z,78.54
2018-11-06T01:48:13.391Z,78.35
2018-11-06T01:50:41.156Z,78.26
2018-11-06T01:53:08.616Z,78.20
2018-11-06T01:55:36.221Z,78.12
2018-11-06T01:58:04.165Z,78.20
2018-11-06T02:00:31.686Z,78.39
2018-11-06T02:02:59.366Z,78.22
2018-11-06T02:05:27.166Z,78.12
2018-11-06T02:07:54.695Z,78.05
2018-11-06T02:10:22.645Z,78.24
2018-11-06T02:12:50.745Z,77.92
2018-11-06T02:15:18.223Z,78.40
2018-11-06T02:17:45.967Z,78.23
2018-11-06T02:20:14.428Z,78.52
2018-11-06T02:22:42.897Z,78.51
2018-11-06T02:25:10.764Z,78.54
2018-11-06T02:27:38.574Z,78.63
2018-11-06T02:30:07.791Z,78.36
2018-11-06T02:32:35.710Z,78.22
2018-11-06T02:35:03.699Z,78.23
2018-11-06T02:37:31.223Z,78.27
2018-11-06T02:39:59.053Z,78.88
2018-11-06T02:42:27.021Z,78.27
2018-11-06T02:44:54.496Z,78.68
2018-11-06T02:47:22.211Z,78.35
2018-11-06T02:49:49.844Z,78.78
2018-11-06T02:52:17.374Z,78.62
2018-11-06T02:54:45.239Z,78.37
2018-11-06T02:57:13.000Z,78.41
2018-11-06T02:59:40.505Z,78.87
2018-11-06T03:02:08.164Z,78.93
2018-11-06T03:04:35.824Z,78.70
2018-11-06T03:07:03.313Z,78.78
2018-11-06T03:09:30.956Z,78.68
2018-11-06T03:11:58.613Z,78.73
2018-11-06T03:14:26.092Z,78.77
2018-11-06T03:16:53.876Z,78.82
2018-11-06T03:19:28.123Z,78.64
2018-11-06T03:21:55.777Z,78.89
2018-11-06T03:24:23.253Z,79.24
2018-11-06T03:26:51.121Z,78.70
2018-11-06T03:29:18.744Z,79.20
2018-11-06T03:31:46.363Z,78.59
2018-11-06T03:34:14.372Z,79.04
2018-11-06T03:36:42.171Z,78.95
2018-11-06T03:39:10.182Z,79.24
2018-11-06T03:41:38.317Z,78.83
2018-11-06T03:44:06.323Z,79.57
2018-11-06T03:46:33.835Z,79.04
2018-11-06T03:49:01.605Z,79.11
2018-11-06T03:51:29.338Z,79.49
2018-11-06T03:53:56.849Z,79.08
2018-11-06T03:56:24.473Z,79.19
2018-11-06T03:58:52.318Z,79.29
2018-11-06T04:01:19.796Z,79.21
2018-11-06T04:03:47.426Z,79.60
2018-11-06T04:06:15.356Z,79.72
2018-11-06T04:08:42.857Z,79.48
2018-11-06T04:11:10.660Z,79.72
2018-11-06T04:13:38.184Z,79.52
2018-11-06T04:16:05.662Z,79.50
2018-11-06T04:18:33.544Z,79.63
2018-11-06T04:21:00.942Z,79.56
2018-11-06T04:23:28.491Z,79.41
2018-11-06T04:25:56.160Z,79.42
2018-11-06T04:28:23.962Z,79.38
2018-11-06T04:30:51.414Z,79.42
2018-11-06T04:33:19.229Z,79.62
2018-11-06T04:35:46.931Z,79.65
2018-11-06T04:38:14.382Z,79.96
2018-11-06T04:40:42.202Z,79.60
2018-11-06T04:43:09.709Z,79.71
2018-11-06T04:45:37.613Z,79.89
2018-11-06T04:48:05.819Z,79.71
2018-11-06T04:50:33.646Z,79.69
2018-11-06T04:53:01.124Z,79.69
2018-11-06T04:55:29.108Z,79.48
2018-11-06T04:57:56.815Z,79.88
2018-11-06T05:00:24.337Z,79.50
2018-11-06T05:02:52.110Z,79.93
2018-11-06T05:05:19.655Z,79.78
2018-11-06T05:07:47.158Z,79.91
2018-11-06T05:10:15.382Z,79.68
2018-11-06T05:12:43.300Z,79.88
2018-11-06T05:15:12.279Z,79.87
2018-11-06T05:17:39.865Z,79.89
2018-11-06T05:20:09.330Z,79.88
2018-11-06T05:22:37.093Z,79.73
2018-11-06T05:25:04.836Z,79.84
2018-11-06T05:27:32.556Z,79.85
2018-11-06T05:30:00.057Z,79.66
2018-11-06T05:32:27.764Z,80.09
2018-11-06T05:34:55.634Z,80.00
2018-11-06T05:37:23.038Z,79.66
2018-11-06T05:40:02.405Z,80.00
2018-11-06T05:42:29.898Z,79.88
2018-11-06T05:44:57.377Z,80.01
2018-11-06T05:47:25.112Z,80.06
2018-11-06T05:49:52.590Z,80.37
2018-11-06T05:52:20.470Z,80.16
2018-11-06T05:54:48.434Z,80.22
2018-11-06T05:57:16.115Z,80.06
2018-11-06T05:59:43.921Z,80.29
2018-11-06T06:02:11.996Z,79.91
2018-11-06T06:04:39.462Z,80.24
2018-11-06T06:07:07.275Z,80.36
2018-11-06T06:09:35.674Z,80.33
2018-11-06T06:12:03.114Z,80.28
2018-11-06T06:14:30.613Z,79.90
2018-11-06T06:16:59.028Z,79.99
2018-11-06T06:19:26.455Z,80.08
2018-11-06T06:21:53.899Z,80.20
2018-11-06T06:24:21.499Z,80.12
2018-11-06T06:26:49.002Z,79.92
2018-11-06T06:29:16.522Z,80.40
2018-11-06T06:31:44.878Z,80.44
2018-11-06T06:34:12.347Z,80.21
2018-11-06T06:36:40.515Z,80.36
2018-11-06T06:39:09.701Z,80.03
2018-11-06T06:41:37.640Z,80.14
2018-11-06T06:44:05.767Z,80.02
2018-11-06T06:46:33.941Z,80.06
2018-11-06T06:49:01.421Z,80.07
2018-11-06T06:51:28.858Z,80.21
2018-11-06T06:54:28.098Z,80.38
2018-11-06T06:56:55.341Z,79.96
2018-11-06T06:59:22.994Z,80.03
2018-11-06T07:01:51.222Z,79.98
2018-11-06T07:04:19.302Z,80.18
2018-11-06T07:06:47.329Z,80.06
2018-11-06T07:09:15.465Z,80.07
2018-11-06T07:11:43.382Z,80.06
2018-11-06T07:14:10.832Z,80.10
2018-11-06T07:16:38.756Z,80.37
2018-11-06T07:19:06.252Z,80.36
2018-11-06T07:24:32.788Z,80.26
2018-11-06T07:27:00.286Z,80.12
2018-11-06T07:29:28.302Z,80.35
2018-11-06T07:31:56.034Z,80.22
2018-11-06T07:34:23.869Z,80.21
2018-11-06T07:36:51.602Z,80.17
2018-11-06T07:39:19.337Z,80.26
2018-11-06T07:41:46.938Z,80.05
2018-11-06T07:44:14.637Z,80.08
2018-11-06T07:46:42.485Z,79.97
2018-11-06T07:49:09.968Z,79.81
2018-11-06T07:51:37.880Z,79.74
2018-11-06T07:54:05.496Z,79.94
2018-11-06T07:56:32.975Z,79.68
2018-11-06T07:59:00.877Z,80.21
2018-11-06T08:01:28.419Z,80.17
2018-11-06T08:03:55.870Z,79.88
2018-11-06T08:06:23.614Z,80.41
2018-11-06T08:08:51.285Z,80.15
2018-11-06T08:11:18.791Z,80.16
2018-11-06T08:13:46.551Z,80.08
2018-11-06T08:16:14.494Z,80.14
2018-11-06T08:18:41.964Z,80.64
2018-11-06T08:21:09.856Z,80.32
2018-11-06T08:23:37.630Z,80.38
2018-11-06T08:26:05.627Z,80.48
2018-11-06T08:28:33.449Z,80.58
2018-11-06T08:31:01.611Z,80.44
2018-11-06T08:33:29.054Z,80.76
2018-11-06T08:35:56.726Z,80.53
2018-11-06T08:38:24.491Z,81.14
2018-11-06T08:40:52.189Z,80.83
2018-11-06T08:43:19.769Z,80.86
2018-11-06T08:45:47.273Z,80.72
2018-11-06T08:48:14.917Z,80.95
2018-11-06T08:50:42.706Z,80.77
2018-11-06T08:53:10.358Z,80.96
2018-11-06T08:55:37.930Z,80.96
2018-11-06T08:58:05.709Z,81.09
2018-11-06T09:00:33.441Z,81.23
2018-11-06T09:03:00.909Z,81.36
2018-11-06T09:05:28.721Z,81.12
2018-11-06T09:07:56.315Z,81.11
2018-11-06T09:10:23.847Z,81.45
2018-11-06T09:12:51.622Z,81.74
2018-11-06T09:15:19.141Z,81.11
2018-11-06T09:17:46.607Z,80.88
2018-11-06T09:20:15.390Z,81.22
2018-11-06T09:22:43.095Z,80.88
2018-11-06T09:25:12.000Z,81.06
2018-11-06T09:27:40.431Z,81.24
2018-11-06T09:30:09.898Z,80.83
2018-11-06T09:32:37.392Z,81.16
2018-11-06T09:35:05.954Z,80.77
2018-11-06T09:37:33.871Z,80.83
2018-11-06T09:40:01.381Z,80.80
2018-11-06T09:42:29.172Z,81.16
2018-11-06T09:44:56.976Z,80.72
2018-11-06T09:47:24.437Z,81.49
2018-11-06T09:49:52.482Z,81.32
2018-11-06T09:52:20.321Z,81.28
2018-11-06T09:54:48.047Z,81.45
2018-11-06T09:57:15.778Z,81.16
2018-11-06T09:59:43.504Z,81.16
2018-11-06T10:02:10.942Z,81.21
2018-11-06T10:04:39.069Z,81.00
2018-11-06T10:07:06.880Z,81.04
2018-11-06T10:09:34.064Z,81.01
2018-11-06T10:12:01.773Z,81.43
2018-11-06T10:14:29.682Z,81.25
2018-11-06T10:16:57.111Z,81.34
2018-11-06T10:19:25.070Z,81.38
2018-11-06T10:21:52.550Z,81.60
2018-11-06T10:24:19.990Z,81.63
2018-11-06T10:26:47.730Z,81.54
2018-11-06T10:29:15.281Z,81.75
2018-11-06T10:31:42.769Z,81.57
2018-11-06T10:34:10.717Z,81.52
2018-11-06T10:36:38.463Z,82.02
2018-11-06T10:39:09.068Z,81.94
2018-11-06T10:41:37.156Z,81.93
2018-11-06T10:44:05.189Z,82.05
2018-11-06T10:46:32.669Z,82.13
2018-11-06T10:49:00.702Z,81.99
2018-11-06T10:51:28.458Z,82.11
2018-11-06T10:53:55.944Z,82.26
2018-11-06T10:56:23.681Z,82.43
2018-11-06T10:58:51.271Z,82.07
2018-11-06T11:01:24.344Z,82.18
2018-11-06T11:03:57.748Z,82.51
2018-11-06T11:06:25.431Z,82.12
2018-11-06T11:08:52.894Z,82.38
2018-11-06T11:11:20.734Z,81.97
2018-11-06T11:13:48.262Z,82.31
2018-11-06T11:16:15.728Z,82.21
2018-11-06T11:18:43.385Z,82.12
2018-11-06T11:21:11.150Z,82.48
2018-11-06T11:23:38.833Z,82.42
2018-11-06T11:26:06.720Z,82.25
2018-11-06T11:28:34.322Z,82.27
2018-11-06T11:31:02.378Z,82.07
2018-11-06T11:33:30.645Z,82.50
2018-11-06T11:35:58.347Z,82.49
2018-11-06T11:38:25.874Z,82.79
2018-11-06T11:40:54.072Z,82.53
2018-11-06T11:43:22.451Z,82.66
2018-11-06T11:45:50.016Z,83.09
2018-11-06T11:48:18.134Z,83.10
2018-11-06T11:50:45.877Z,82.66
2018-11-06T11:53:13.340Z,82.78
2018-11-06T11:55:41.112Z,82.95
2018-11-06T11:58:08.889Z,82.78
2018-11-06T12:00:38.093Z,83.05
2018-11-06T12:03:06.933Z,82.88
2018-11-06T12:05:35.102Z,82.92
2018-11-06T12:08:02.596Z,82.93
2018-11-06T12:10:30.761Z,82.86
2018-11-06T12:12:58.604Z,82.87
2018-11-06T12:15:26.113Z,83.01
2018-11-06T12:17:54.102Z,82.99
2018-11-06T12:20:21.842Z,83.03
2018-11-06T12:22:49.335Z,82.77
2018-11-06T12:25:17.383Z,82.75
2018-11-06T12:27:44.846Z,82.76
2018-11-06T12:30:13.855Z,83.22
2018-11-06T12:32:41.973Z,83.01
2018-11-06T12:35:10.731Z,82.90
2018-11-06T12:37:38.584Z,83.06
2018-11-06T12:40:07.335Z,82.97
2018-11-06T12:42:35.122Z,82.99
2018-11-06T12:45:02.696Z,83.39
2018-11-06T12:47:30.659Z,82.95
2018-11-06T12:49:58.425Z,83.19
2018-11-06T12:52:25.996Z,83.07
2018-11-06T12:54:53.953Z,83.20
2018-11-06T12:57:21.727Z,83.21
2018-11-06T12:59:49.270Z,83.24
2018-11-06T13:02:17.256Z,83.05
2018-11-06T13:04:45.000Z,83.45
2018-11-06T13:07:12.474Z,83.00
2018-11-06T13:09:40.245Z,83.47
2018-11-06T13:12:07.985Z,83.42
2018-11-06T13:14:35.481Z,83.65
2018-11-06T13:17:03.280Z,83.09
2018-11-06T13:19:31.124Z,83.56
2018-11-06T13:21:58.577Z,83.17
2018-11-06T13:24:26.108Z,83.36
2018-11-06T13:26:53.655Z,82.95
2018-11-06T13:29:21.143Z,83.39
2018-11-06T13:31:48.736Z,83.12
2018-11-06T13:34:16.238Z,83.35
2018-11-06T13:36:43.683Z,83.25
2018-11-06T13:39:12.497Z,83.23
2018-11-06T13:41:40.416Z,83.22
2018-11-06T13:44:08.736Z,83.28
2018-11-06T13:46:36.507Z,83.40
2018-11-06T13:49:04.488Z,83.36
2018-11-06T13:51:32.050Z,82.99
2018-11-06T13:53:59.774Z,83.26
2018-11-06T13:56:27.316Z,83.16
2018-11-06T13:58:54.747Z,82.94
2018-11-06T14:01:22.730Z,83.35
2018-11-06T14:03:50.430Z,83.32
2018-11-06T14:06:17.913Z,83.43
2018-11-06T14:08:45.678Z,83.58
2018-11-06T14:11:13.418Z,83.55
2018-11-06T14:13:40.917Z,83.36
2018-11-06T14:16:08.689Z,83.39
2018-11-06T14:18:36.442Z,83.60
2018-11-06T14:21:04.224Z,83.77
2018-11-06T14:23:32.031Z,83.51
2018-11-06T14:25:59.891Z,83.33
2018-11-06T14:28:27.368Z,83.60
2018-11-06T14:30:55.266Z,83.27
2018-11-06T14:33:23.191Z,83.56
2018-11-06T14:35:50.686Z,83.36
2018-11-06T14:38:18.562Z,83.13
2018-11-06T14:40:46.314Z,83.45
2018-11-06T14:43:13.785Z,83.27
2018-11-06T14:45:41.548Z,83.37
2018-11-06T14:48:09.379Z,83.53
2018-11-06T14:50:36.918Z,83.63
2018-11-06T14:53:05.451Z,83.41
2018-11-06T14:55:33.178Z,83.49
2018-11-06T14:58:00.626Z,83.51
2018-11-06T15:00:28.459Z,83.46
2018-11-06T15:02:56.565Z,83.33
2018-11-06T15:05:24.184Z,83.28
2018-11-06T15:07:52.060Z,83.21
2018-11-06T15:10:19.852Z,83.24
2018-11-06T15:12:47.787Z,83.46
2018-11-06T15:15:16.373Z,83.28
2018-11-06T15:17:44.934Z,83.29
2018-11-06T15:20:14.208Z,83.88
2018-11-06T15:22:42.651Z,83.73
2018-11-06T15:25:11.165Z,83.80
2018-11-06T15:27:38.841Z,83.44
2018-11-06T15:30:08.097Z,83.41
2018-11-06T15:32:35.818Z,83.51
2018-11-06T15:35:03.475Z,82.93
2018-11-06T15:37:31.380Z,83.04
2018-11-06T15:39:58.934Z,82.91
2018-11-06T15:42:26.463Z,82.87
2018-11-06T15:44:54.373Z,82.82
2018-11-06T15:47:21.794Z,83.05
2018-11-06T15:49:49.298Z,83.01
2018-11-06T15:52:16.889Z,82.95
2018-11-06T15:54:44.897Z,82.59
2018-11-06T15:57:12.253Z,82.83
2018-11-06T15:59:40.044Z,82.92
2018-11-06T16:02:07.769Z,82.81
2018-11-06T16:04:35.335Z,82.82
2018-11-06T16:07:03.062Z,82.74
2018-11-06T16:09:30.734Z,82.88
2018-11-06T16:11:58.206Z,83.00
2018-11-06T16:17:00.259Z,82.71
2018-11-06T16:19:27.786Z,82.61
2018-11-06T16:21:55.493Z,82.80
2018-11-06T16:24:23.244Z,82.65
2018-11-06T16:26:50.709Z,82.53
2018-11-06T16:29:18.461Z,82.34
2018-11-06T16:31:46.221Z,82.69
2018-11-06T16:34:13.711Z,82.34
2018-11-06T16:36:41.458Z,82.27
2018-11-06T16:39:10.735Z,82.75
2018-11-06T16:41:38.263Z,82.62
2018-11-06T16:44:06.281Z,82.51
2018-11-06T16:46:33.811Z,82.50
2018-11-06T16:49:01.343Z,82.54
2018-11-06T16:51:29.564Z,82.41
2018-11-06T16:53:57.333Z,82.70
2018-11-06T16:56:24.905Z,82.45
2018-11-06T16:58:52.559Z,82.39
2018-11-06T17:01:20.142Z,82.03
2018-11-06T17:03:47.612Z,82.37
2018-11-06T17:06:50.896Z,82.18
2018-11-06T17:09:19.269Z,82.02
2018-11-06T17:11:46.742Z,81.87
2018-11-06T17:14:14.784Z,81.90
2018-11-06T17:16:42.255Z,81.74
2018-11-06T17:19:09.746Z,81.65
2018-11-06T17:21:37.577Z,82.05
2018-11-06T17:24:05.724Z,81.69
2018-11-06T17:26:33.231Z,82.40
2018-11-06T17:29:01.683Z,81.87
2018-11-06T17:31:29.303Z,81.83
2018-11-06T17:33:56.756Z,82.12
2018-11-06T17:36:24.698Z,82.28
2018-11-06T17:38:52.326Z,82.05
2018-11-06T17:41:19.815Z,82.02
2018-11-06T17:43:47.527Z,82.05
2018-11-06T17:46:15.415Z,82.27
2018-11-06T17:48:42.942Z,82.14
2018-11-06T17:51:10.660Z,82.15
2018-11-06T17:53:38.213Z,82.03
2018-11-06T17:56:05.938Z,82.18
2018-11-06T17:58:33.633Z,82.10
2018-11-06T18:01:01.139Z,81.82
2018-11-06T18:03:28.696Z,81.94
2018-11-06T18:05:56.647Z,81.97
2018-11-06T18:08:24.684Z,81.51
2018-11-06T18:10:52.224Z,81.43
2018-11-06T18:13:19.918Z,82.16
2018-11-06T18:15:47.702Z,81.98
2018-11-06T18:18:15.201Z,82.17
2018-11-06T18:20:42.894Z,82.02
2018-11-06T18:23:10.511Z,81.78
2018-11-06T18:25:38.069Z,81.88
2018-11-06T18:28:06.148Z,81.83
2018-11-06T18:30:33.727Z,81.68
2018-11-06T18:33:01.217Z,82.21
2018-11-06T18:35:28.960Z,82.02
2018-11-06T18:37:56.674Z,81.93
2018-11-06T18:40:24.101Z,81.99
2018-11-06T18:42:51.833Z,82.15
2018-11-06T18:45:19.459Z,82.13
2018-11-06T18:47:47.039Z,82.04
2018-11-06T18:50:16.112Z,82.28
2018-11-06T18:52:44.949Z,81.97
2018-11-06T18:55:12.459Z,82.14
2018-11-06T18:57:40.987Z,81.55
2018-11-06T19:00:12.025Z,81.93
2018-11-06T19:02:39.643Z,82.13
2018-11-06T19:05:07.385Z,82.11
2018-11-06T19:10:38.185Z,82.33
2018-11-06T19:13:05.591Z,82.87
2018-11-06T19:15:33.034Z,82.47
2018-11-06T19:18:00.826Z,82.36
2018-11-06T19:20:28.324Z,82.06
2018-11-06T19:22:55.780Z,82.36
2018-11-06T19:25:23.655Z,82.20
2018-11-06T19:27:51.679Z,82.22
2018-11-06T19:30:19.703Z,82.02
2018-11-06T19:32:47.408Z,81.97
2018-11-06T19:35:14.913Z,82.03
2018-11-06T19:37:42.524Z,82.34
2018-11-06T19:40:11.590Z,81.89
2018-11-06T19:42:39.773Z,82.15
2018-11-06T19:45:08.075Z,81.91
2018-11-06T19:47:35.846Z,82.23
2018-11-06T19:50:03.512Z,82.26
2018-11-06T19:52:30.951Z,82.21
2018-11-06T19:54:58.832Z,82.22
2018-11-06T19:57:26.323Z,82.22
2018-11-06T19:59:53.796Z,81.84
2018-11-06T20:02:21.542Z,82.29
2018-11-06T20:07:49.201Z,82.39
2018-11-06T20:10:17.993Z,82.45
2018-11-06T20:12:46.424Z,82.26
2018-11-06T20:15:14.943Z,82.54
2018-11-06T20:17:42.861Z,82.43
2018-11-06T20:20:13.732Z,82.30
2018-11-06T20:22:41.457Z,82.32
2018-11-06T20:25:09.559Z,82.23
2018-11-06T20:27:37.078Z,82.03
2018-11-06T20:30:06.119Z,82.12
2018-11-06T20:32:33.542Z,82.45
2018-11-06T20:35:00.983Z,82.41
2018-11-06T20:37:28.773Z,82.55
2018-11-06T20:39:56.249Z,82.68
2018-11-06T20:42:23.738Z,82.73
2018-11-06T20:44:51.529Z,82.51
2018-11-06T20:47:19.038Z,82.71
2018-11-06T20:49:46.626Z,82.56
2018-11-06T20:52:14.312Z,82.53
2018-11-06T20:54:41.770Z,82.56
2018-11-06T20:57:09.243Z,82.74
2018-11-06T20:59:36.922Z,82.73
2018-11-06T21:02:05.473Z,82.69
2018-11-06T21:04:32.942Z,82.85
2018-11-06T21:07:00.744Z,82.80
2018-11-06T21:09:28.189Z,82.58
2018-11-06T21:11:55.719Z,82.68
2018-11-06T21:14:23.433Z,82.78
2018-11-06T21:16:50.962Z,82.56
2018-11-06T21:19:18.466Z,82.73
2018-11-06T21:21:46.112Z,82.53
2018-11-06T21:24:13.542Z,82.77
2018-11-06T21:26:41.066Z,82.85
2018-11-06T21:29:08.551Z,82.40
2018-11-06T21:31:35.996Z,82.87
2018-11-06T21:34:03.534Z,82.72
2018-11-06T21:36:31.144Z,82.38
2018-11-06T21:38:58.655Z,82.98
2018-11-06T21:41:26.133Z,82.59
2018-11-06T21:43:53.831Z,82.53
2018-11-06T21:46:21.304Z,82.46
2018-11-06T21:48:48.748Z,82.60
2018-11-06T21:51:16.572Z,82.49
2018-11-06T21:53:44.035Z,82.69
2018-11-06T21:56:11.515Z,83.12
2018-11-06T21:58:39.105Z,82.92
2018-11-06T22:01:06.630Z,82.99
2018-11-06T22:03:34.084Z,82.56
2018-11-06T22:06:01.636Z,82.49
2018-11-06T22:08:29.124Z,82.95
2018-11-06T22:10:56.582Z,82.62
2018-11-06T22:13:24.203Z,82.91
2018-11-06T22:15:51.705Z,82.56
2018-11-06T22:18:19.918Z,82.86
2018-11-06T22:20:47.644Z,82.64
2018-11-06T22:23:15.142Z,82.63
2018-11-06T22:25:42.633Z,82.73
2018-11-06T22:28:10.172Z,82.59
2018-11-06T22:30:37.650Z,82.72
2018-11-06T22:33:05.235Z,82.44
2018-11-06T22:35:33.001Z,82.83
2018-11-06T22:38:00.507Z,83.07
2018-11-06T22:40:27.938Z,82.81
2018-11-06T22:42:55.750Z,82.90
2018-11-06T22:45:23.182Z,82.77
2018-11-06T22:47:50.675Z,82.61
2018-11-06T22:50:18.454Z,82.55
2018-11-06T22:52:46.652Z,82.57
2018-11-06T22:55:14.203Z,82.73
2018-11-06T22:57:41.980Z,82.51
2018-11-06T23:00:16.226Z,82.79
2018-11-06T23:02:44.049Z,82.82
2018-11-06T23:05:11.625Z,82.60
2018-11-06T23:07:44.844Z,82.66
2018-11-06T23:10:12.493Z,82.88
2018-11-06T23:12:40.032Z,82.42
2018-11-06T23:15:07.863Z,82.67
2018-11-06T23:17:35.519Z,82.63
2018-11-06T23:20:03.160Z,82.24
2018-11-06T23:22:30.836Z,82.86
2018-11-06T23:24:58.585Z,82.26
2018-11-06T23:27:26.029Z,82.66
2018-11-06T23:29:53.706Z,82.57
2018-11-06T23:32:21.230Z,82.74
2018-11-06T23:34:48.675Z,82.56
2018-11-06T23:37:16.324Z,82.43
2018-11-06T23:39:43.979Z,82.86
2018-11-06T23:42:11.388Z,82.33
2018-11-06T23:44:39.047Z,82.55
2018-11-06T23:47:06.759Z,82.51
2018-11-06T23:49:34.180Z,82.66
2018-11-06T23:52:01.744Z,82.15
2018-11-06T23:54:29.400Z,82.71
2018-11-06T23:56:56.906Z,82.46
2018-11-06T23:59:24.506Z,82.65
